sensor_id;sensor_type;location;lat;lon;timestamp;P1;durP1;ratioP1;P2;durP2;ratioP2
70369;SDS011;57790;51.356;-2.906;2022-11-11T00:01:32;6.60;;;1.60;;
70369;SDS011;57790;51.356;-2.906;2022-11-11T00:04:33;6.57;;;0.90;;
70369;SDS011;57790;51.356;-2.906;2022-11-11T00:07:33;9.23;;;1.23;;
70369;SDS011;57790;51.356;-2.906;2022-11-11T00:10:34;5.27;;;0.80;;
70369;SDS011;57790;51.356;-2.906;2022-11-11T00:13:35;5.80;;;0.80;;
70369;SDS011;57790;51.356;-2.906;2022-11-11T00:16:37;5.97;;;0.90;;
70369;SDS011;57790;51.356;-2.906;2022-11-11T00:19:57;7.75;;;0.90;;
70369;SDS011;57790;51.356;-2.906;2022-11-11T00:23:19;4.43;;;0.88;;
70369;SDS011;57790;51.356;-2.906;2022-11-11T00:26:41;4.70;;;0.80;;
70369;SDS011;57790;51.356;-2.906;2022-11-11T00:29:45;6.23;;;0.80;;
70369;SDS011;57790;51.356;-2.906;2022-11-11T00:32:46;8.02;;;1.05;;
70369;SDS011;57790;51.356;-2.906;2022-11-11T00:35:46;6.67;;;1.00;;
70369;SDS011;57790;51.356;-2.906;2022-11-11T00:38:55;7.00;;;0.80;;
70369;SDS011;57790;51.356;-2.906;2022-11-11T00:41:57;6.00;;;0.60;;
70369;SDS011;57790;51.356;-2.906;2022-11-11T00:44:57;9.07;;;0.70;;
70369;SDS011;57790;51.356;-2.906;2022-11-11T00:47:58;5.88;;;0.77;;
70369;SDS011;57790;51.356;-2.906;2022-11-11T00:51:21;5.78;;;0.80;;
70369;SDS011;57790;51.356;-2.906;2022-11-11T00:54:21;6.10;;;1.00;;
70369;SDS011;57790;51.356;-2.906;2022-11-11T00:57:22;4.63;;;0.90;;
70369;SDS011;57790;51.356;-2.906;2022-11-11T01:00:22;7.53;;;1.10;;
70369;SDS011;57790;51.356;-2.906;2022-11-11T01:03:23;6.00;;;0.73;;
70369;SDS011;57790;51.356;-2.906;2022-11-11T01:06:24;6.70;;;1.03;;
70369;SDS011;57790;51.356;-2.906;2022-11-11T01:09:24;4.75;;;0.80;;
70369;SDS011;57790;51.356;-2.906;2022-11-11T01:12:25;6.17;;;0.80;;
70369;SDS011;57790;51.356;-2.906;2022-11-11T01:15:25;7.03;;;0.70;;
70369;SDS011;57790;51.356;-2.906;2022-11-11T01:18:26;8.65;;;1.25;;
70369;SDS011;57790;51.356;-2.906;2022-11-11T01:21:28;5.47;;;0.70;;
70369;SDS011;57790;51.356;-2.906;2022-11-11T01:24:28;4.93;;;1.10;;
70369;SDS011;57790;51.356;-2.906;2022-11-11T01:27:29;7.57;;;0.80;;
70369;SDS011;57790;51.356;-2.906;2022-11-11T01:30:30;5.53;;;0.70;;
70369;SDS011;57790;51.356;-2.906;2022-11-11T01:33:32;7.67;;;0.77;;
70369;SDS011;57790;51.356;-2.906;2022-11-11T01:36:33;4.40;;;0.90;;
70369;SDS011;57790;51.356;-2.906;2022-11-11T01:39:34;5.75;;;0.95;;
70369;SDS011;57790;51.356;-2.906;2022-11-11T01:43:21;6.83;;;0.93;;
70369;SDS011;57790;51.356;-2.906;2022-11-11T01:46:32;10.65;;;1.20;;
70369;SDS011;57790;51.356;-2.906;2022-11-11T01:49:54;8.85;;;1.00;;
70369;SDS011;57790;51.356;-2.906;2022-11-11T01:52:57;5.90;;;1.03;;
70369;SDS011;57790;51.356;-2.906;2022-11-11T01:55:58;6.90;;;0.80;;
70369;SDS011;57790;51.356;-2.906;2022-11-11T01:59:01;5.60;;;0.90;;
70369;SDS011;57790;51.356;-2.906;2022-11-11T02:02:11;6.73;;;0.73;;
70369;SDS011;57790;51.356;-2.906;2022-11-11T02:05:22;6.00;;;0.60;;
70369;SDS011;57790;51.356;-2.906;2022-11-11T02:08:43;3.92;;;0.60;;
70369;SDS011;57790;51.356;-2.906;2022-11-11T02:11:44;6.05;;;0.70;;
70369;SDS011;57790;51.356;-2.906;2022-11-11T02:15:05;4.45;;;0.65;;
70369;SDS011;57790;51.356;-2.906;2022-11-11T02:18:06;7.33;;;0.80;;
70369;SDS011;57790;51.356;-2.906;2022-11-11T02:21:08;6.15;;;1.10;;
70369;SDS011;57790;51.356;-2.906;2022-11-11T02:24:14;6.30;;;0.80;;
70369;SDS011;57790;51.356;-2.906;2022-11-11T02:27:17;4.60;;;0.70;;
70369;SDS011;57790;51.356;-2.906;2022-11-11T02:30:21;6.32;;;0.88;;
70369;SDS011;57790;51.356;-2.906;2022-11-11T02:33:22;4.73;;;0.73;;
70369;SDS011;57790;51.356;-2.906;2022-11-11T02:36:23;5.03;;;0.65;;
70369;SDS011;57790;51.356;-2.906;2022-11-11T02:39:24;6.93;;;1.20;;
70369;SDS011;57790;51.356;-2.906;2022-11-11T02:42:28;5.87;;;0.83;;
70369;SDS011;57790;51.356;-2.906;2022-11-11T02:45:30;6.70;;;0.80;;
70369;SDS011;57790;51.356;-2.906;2022-11-11T02:48:31;7.25;;;1.10;;
70369;SDS011;57790;51.356;-2.906;2022-11-11T02:51:32;5.68;;;0.90;;
70369;SDS011;57790;51.356;-2.906;2022-11-11T02:54:32;7.13;;;1.10;;
70369;SDS011;57790;51.356;-2.906;2022-11-11T02:57:33;6.30;;;1.53;;
70369;SDS011;57790;51.356;-2.906;2022-11-11T03:00:34;7.80;;;1.05;;
70369;SDS011;57790;51.356;-2.906;2022-11-11T03:03:34;9.60;;;0.98;;
70369;SDS011;57790;51.356;-2.906;2022-11-11T03:06:35;8.90;;;0.90;;
70369;SDS011;57790;51.356;-2.906;2022-11-11T03:09:36;7.47;;;1.10;;
70369;SDS011;57790;51.356;-2.906;2022-11-11T03:12:36;9.68;;;1.20;;
70369;SDS011;57790;51.356;-2.906;2022-11-11T03:15:37;8.23;;;1.30;;
70369;SDS011;57790;51.356;-2.906;2022-11-11T03:18:37;9.60;;;1.03;;
70369;SDS011;57790;51.356;-2.906;2022-11-11T03:21:38;6.82;;;1.13;;
70369;SDS011;57790;51.356;-2.906;2022-11-11T03:24:41;9.57;;;0.97;;
70369;SDS011;57790;51.356;-2.906;2022-11-11T03:28:03;7.10;;;0.95;;
70369;SDS011;57790;51.356;-2.906;2022-11-11T03:31:08;9.98;;;1.20;;
70369;SDS011;57790;51.356;-2.906;2022-11-11T03:34:08;7.33;;;0.87;;
70369;SDS011;57790;51.356;-2.906;2022-11-11T03:37:24;7.15;;;0.98;;
70369;SDS011;57790;51.356;-2.906;2022-11-11T03:40:45;6.00;;;0.85;;
70369;SDS011;57790;51.356;-2.906;2022-11-11T03:43:47;7.10;;;0.93;;
70369;SDS011;57790;51.356;-2.906;2022-11-11T03:46:47;5.47;;;0.87;;
70369;SDS011;57790;51.356;-2.906;2022-11-11T03:49:48;8.03;;;0.70;;
70369;SDS011;57790;51.356;-2.906;2022-11-11T03:52:48;4.80;;;0.82;;
70369;SDS011;57790;51.356;-2.906;2022-11-11T03:55:49;6.17;;;0.90;;
70369;SDS011;57790;51.356;-2.906;2022-11-11T03:58:50;4.50;;;0.70;;
70369;SDS011;57790;51.356;-2.906;2022-11-11T04:01:51;4.23;;;0.50;;
70369;SDS011;57790;51.356;-2.906;2022-11-11T04:05:11;3.67;;;0.60;;
70369;SDS011;57790;51.356;-2.906;2022-11-11T04:08:32;6.28;;;0.93;;
70369;SDS011;57790;51.356;-2.906;2022-11-11T04:11:52;4.63;;;0.60;;
70369;SDS011;57790;51.356;-2.906;2022-11-11T04:14:53;7.33;;;0.90;;
70369;SDS011;57790;51.356;-2.906;2022-11-11T04:18:13;8.05;;;1.13;;
70369;SDS011;57790;51.356;-2.906;2022-11-11T04:21:14;7.57;;;1.07;;
70369;SDS011;57790;51.356;-2.906;2022-11-11T04:24:34;5.93;;;0.80;;
70369;SDS011;57790;51.356;-2.906;2022-11-11T04:27:55;8.07;;;0.90;;
70369;SDS011;57790;51.356;-2.906;2022-11-11T04:31:16;6.38;;;0.70;;
70369;SDS011;57790;51.356;-2.906;2022-11-11T04:34:17;5.10;;;1.00;;
70369;SDS011;57790;51.356;-2.906;2022-11-11T04:37:18;6.28;;;1.08;;
70369;SDS011;57790;51.356;-2.906;2022-11-11T04:40:19;6.90;;;0.90;;
70369;SDS011;57790;51.356;-2.906;2022-11-11T04:43:39;8.35;;;1.05;;
70369;SDS011;57790;51.356;-2.906;2022-11-11T04:47:00;7.57;;;0.90;;
70369;SDS011;57790;51.356;-2.906;2022-11-11T04:50:00;6.73;;;0.90;;
70369;SDS011;57790;51.356;-2.906;2022-11-11T04:53:01;9.40;;;1.15;;
70369;SDS011;57790;51.356;-2.906;2022-11-11T04:56:04;6.18;;;0.98;;
70369;SDS011;57790;51.356;-2.906;2022-11-11T04:59:25;6.93;;;1.10;;
70369;SDS011;57790;51.356;-2.906;2022-11-11T05:02:25;6.68;;;0.95;;
70369;SDS011;57790;51.356;-2.906;2022-11-11T05:05:47;8.13;;;1.30;;
70369;SDS011;57790;51.356;-2.906;2022-11-11T05:09:10;5.45;;;0.70;;
70369;SDS011;57790;51.356;-2.906;2022-11-11T05:12:11;5.72;;;0.98;;
70369;SDS011;57790;51.356;-2.906;2022-11-11T05:15:11;9.60;;;0.83;;
70369;SDS011;57790;51.356;-2.906;2022-11-11T05:18:32;8.32;;;1.02;;
70369;SDS011;57790;51.356;-2.906;2022-11-11T05:21:52;8.67;;;0.90;;
70369;SDS011;57790;51.356;-2.906;2022-11-11T05:24:56;8.60;;;1.52;;
70369;SDS011;57790;51.356;-2.906;2022-11-11T05:28:17;7.68;;;1.00;;
70369;SDS011;57790;51.356;-2.906;2022-11-11T05:31:18;6.80;;;0.83;;
70369;SDS011;57790;51.356;-2.906;2022-11-11T05:34:18;4.40;;;0.70;;
70369;SDS011;57790;51.356;-2.906;2022-11-11T05:37:20;8.73;;;1.10;;
70369;SDS011;57790;51.356;-2.906;2022-11-11T05:40:20;5.90;;;1.35;;
70369;SDS011;57790;51.356;-2.906;2022-11-11T05:43:22;5.65;;;1.00;;
70369;SDS011;57790;51.356;-2.906;2022-11-11T05:46:23;9.63;;;1.20;;
70369;SDS011;57790;51.356;-2.906;2022-11-11T05:49:23;6.20;;;0.80;;
70369;SDS011;57790;51.356;-2.906;2022-11-11T05:52:24;6.23;;;0.93;;
70369;SDS011;57790;51.356;-2.906;2022-11-11T05:55:25;7.57;;;1.10;;
70369;SDS011;57790;51.356;-2.906;2022-11-11T05:58:25;7.50;;;1.20;;
70369;SDS011;57790;51.356;-2.906;2022-11-11T06:01:26;6.00;;;1.10;;
70369;SDS011;57790;51.356;-2.906;2022-11-11T06:04:26;9.68;;;1.10;;
70369;SDS011;57790;51.356;-2.906;2022-11-11T06:07:27;6.67;;;1.07;;
70369;SDS011;57790;51.356;-2.906;2022-11-11T06:10:31;9.43;;;0.95;;
70369;SDS011;57790;51.356;-2.906;2022-11-11T06:13:32;7.82;;;0.90;;
70369;SDS011;57790;51.356;-2.906;2022-11-11T06:16:32;7.97;;;1.10;;
70369;SDS011;57790;51.356;-2.906;2022-11-11T06:19:33;5.40;;;0.80;;
70369;SDS011;57790;51.356;-2.906;2022-11-11T06:22:33;6.30;;;0.90;;
70369;SDS011;57790;51.356;-2.906;2022-11-11T06:25:55;8.45;;;1.20;;
70369;SDS011;57790;51.356;-2.906;2022-11-11T06:29:15;9.45;;;1.25;;
70369;SDS011;57790;51.356;-2.906;2022-11-11T06:32:16;7.77;;;1.10;;
70369;SDS011;57790;51.356;-2.906;2022-11-11T06:35:16;7.87;;;1.13;;
70369;SDS011;57790;51.356;-2.906;2022-11-11T06:38:17;6.93;;;0.90;;
70369;SDS011;57790;51.356;-2.906;2022-11-11T06:41:18;5.88;;;1.00;;
70369;SDS011;57790;51.356;-2.906;2022-11-11T06:44:19;10.40;;;1.13;;
70369;SDS011;57790;51.356;-2.906;2022-11-11T06:47:20;8.88;;;1.10;;
70369;SDS011;57790;51.356;-2.906;2022-11-11T06:50:20;8.17;;;1.10;;
70369;SDS011;57790;51.356;-2.906;2022-11-11T06:53:21;7.07;;;1.20;;
70369;SDS011;57790;51.356;-2.906;2022-11-11T06:56:22;9.85;;;1.35;;
70369;SDS011;57790;51.356;-2.906;2022-11-11T06:59:22;5.00;;;1.30;;
70369;SDS011;57790;51.356;-2.906;2022-11-11T07:02:23;11.03;;;1.80;;
70369;SDS011;57790;51.356;-2.906;2022-11-11T07:05:24;5.65;;;0.95;;
70369;SDS011;57790;51.356;-2.906;2022-11-11T07:08:25;7.68;;;1.35;;
70369;SDS011;57790;51.356;-2.906;2022-11-11T07:11:27;6.10;;;1.00;;
70369;SDS011;57790;51.356;-2.906;2022-11-11T07:14:31;7.10;;;1.20;;
70369;SDS011;57790;51.356;-2.906;2022-11-11T07:17:33;5.00;;;0.88;;
70369;SDS011;57790;51.356;-2.906;2022-11-11T07:20:34;8.03;;;1.30;;
70369;SDS011;57790;51.356;-2.906;2022-11-11T07:23:36;5.40;;;1.08;;
70369;SDS011;57790;51.356;-2.906;2022-11-11T07:26:36;9.68;;;1.30;;
70369;SDS011;57790;51.356;-2.906;2022-11-11T07:29:37;7.40;;;0.90;;
70369;SDS011;57790;51.356;-2.906;2022-11-11T07:32:45;5.80;;;0.97;;
70369;SDS011;57790;51.356;-2.906;2022-11-11T07:35:48;7.75;;;1.20;;
70369;SDS011;57790;51.356;-2.906;2022-11-11T07:38:48;4.10;;;1.07;;
70369;SDS011;57790;51.356;-2.906;2022-11-11T07:41:49;7.25;;;0.95;;
70369;SDS011;57790;51.356;-2.906;2022-11-11T07:44:50;4.23;;;0.80;;
70369;SDS011;57790;51.356;-2.906;2022-11-11T07:47:50;6.00;;;1.30;;
70369;SDS011;57790;51.356;-2.906;2022-11-11T07:50:52;5.93;;;1.00;;
70369;SDS011;57790;51.356;-2.906;2022-11-11T07:53:53;5.82;;;0.90;;
70369;SDS011;57790;51.356;-2.906;2022-11-11T07:56:54;5.38;;;1.10;;
70369;SDS011;57790;51.356;-2.906;2022-11-11T07:59:54;8.03;;;1.40;;
70369;SDS011;57790;51.356;-2.906;2022-11-11T08:02:55;5.13;;;1.30;;
70369;SDS011;57790;51.356;-2.906;2022-11-11T08:05:56;6.15;;;1.50;;
70369;SDS011;57790;51.356;-2.906;2022-11-11T08:08:56;9.80;;;1.80;;
70369;SDS011;57790;51.356;-2.906;2022-11-11T08:11:57;9.73;;;3.03;;
70369;SDS011;57790;51.356;-2.906;2022-11-11T08:15:17;7.23;;;1.40;;
70369;SDS011;57790;51.356;-2.906;2022-11-11T08:18:20;10.07;;;1.30;;
70369;SDS011;57790;51.356;-2.906;2022-11-11T08:21:26;10.23;;;1.80;;
70369;SDS011;57790;51.356;-2.906;2022-11-11T08:24:27;10.50;;;1.60;;
70369;SDS011;57790;51.356;-2.906;2022-11-11T08:27:28;8.30;;;1.55;;
70369;SDS011;57790;51.356;-2.906;2022-11-11T08:30:30;7.60;;;1.03;;
70369;SDS011;57790;51.356;-2.906;2022-11-11T08:33:36;5.45;;;1.10;;
70369;SDS011;57790;51.356;-2.906;2022-11-11T08:36:40;5.90;;;1.00;;
70369;SDS011;57790;51.356;-2.906;2022-11-11T08:39:40;5.00;;;1.60;;
70369;SDS011;57790;51.356;-2.906;2022-11-11T08:42:41;14.27;;;2.23;;
70369;SDS011;57790;51.356;-2.906;2022-11-11T08:45:42;7.70;;;1.27;;
70369;SDS011;57790;51.356;-2.906;2022-11-11T08:48:42;10.73;;;1.60;;
70369;SDS011;57790;51.356;-2.906;2022-11-11T08:51:43;13.70;;;2.87;;
70369;SDS011;57790;51.356;-2.906;2022-11-11T08:54:43;10.45;;;1.60;;
70369;SDS011;57790;51.356;-2.906;2022-11-11T08:57:44;9.30;;;1.43;;
70369;SDS011;57790;51.356;-2.906;2022-11-11T09:00:45;10.68;;;1.95;;
70369;SDS011;57790;51.356;-2.906;2022-11-11T09:03:46;8.17;;;1.30;;
70369;SDS011;57790;51.356;-2.906;2022-11-11T09:06:47;8.95;;;1.17;;
70369;SDS011;57790;51.356;-2.906;2022-11-11T09:09:50;21.85;;;4.88;;
70369;SDS011;57790;51.356;-2.906;2022-11-11T09:12:54;8.83;;;1.33;;
70369;SDS011;57790;51.356;-2.906;2022-11-11T09:15:56;11.70;;;1.52;;
70369;SDS011;57790;51.356;-2.906;2022-11-11T09:18:58;12.80;;;1.75;;
70369;SDS011;57790;51.356;-2.906;2022-11-11T09:21:59;8.83;;;1.43;;
70369;SDS011;57790;51.356;-2.906;2022-11-11T09:25:00;10.48;;;1.65;;
70369;SDS011;57790;51.356;-2.906;2022-11-11T09:28:00;13.03;;;2.00;;
70369;SDS011;57790;51.356;-2.906;2022-11-11T09:31:02;6.53;;;1.20;;
70369;SDS011;57790;51.356;-2.906;2022-11-11T09:34:02;8.85;;;1.38;;
70369;SDS011;57790;51.356;-2.906;2022-11-11T09:37:03;9.20;;;1.30;;
70369;SDS011;57790;51.356;-2.906;2022-11-11T09:40:04;10.20;;;1.33;;
70369;SDS011;57790;51.356;-2.906;2022-11-11T09:46:35;15.85;;;3.25;;
70369;SDS011;57790;51.356;-2.906;2022-11-11T09:50:02;6.72;;;1.10;;
70369;SDS011;57790;51.356;-2.906;2022-11-11T09:53:17;7.82;;;1.08;;
70369;SDS011;57790;51.356;-2.906;2022-11-11T09:56:24;9.03;;;1.43;;
70369;SDS011;57790;51.356;-2.906;2022-11-11T09:59:29;7.25;;;1.27;;
70369;SDS011;57790;51.356;-2.906;2022-11-11T10:02:42;10.20;;;1.30;;
70369;SDS011;57790;51.356;-2.906;2022-11-11T10:05:53;9.18;;;1.13;;
70369;SDS011;57790;51.356;-2.906;2022-11-11T10:09:45;9.02;;;1.52;;
70369;SDS011;57790;51.356;-2.906;2022-11-11T10:12:36;8.73;;;1.20;;
70369;SDS011;57790;51.356;-2.906;2022-11-11T10:15:45;9.48;;;1.10;;
70369;SDS011;57790;51.356;-2.906;2022-11-11T10:19:01;7.18;;;1.48;;
70369;SDS011;57790;51.356;-2.906;2022-11-11T10:22:21;10.80;;;1.38;;
70369;SDS011;57790;51.356;-2.906;2022-11-11T10:25:27;6.32;;;1.10;;
70369;SDS011;57790;51.356;-2.906;2022-11-11T10:28:29;8.87;;;1.30;;
70369;SDS011;57790;51.356;-2.906;2022-11-11T10:31:35;10.27;;;1.48;;
70369;SDS011;57790;51.356;-2.906;2022-11-11T10:34:36;10.00;;;1.67;;
70369;SDS011;57790;51.356;-2.906;2022-11-11T10:37:40;8.43;;;1.50;;
70369;SDS011;57790;51.356;-2.906;2022-11-11T10:40:46;10.18;;;1.80;;
70369;SDS011;57790;51.356;-2.906;2022-11-11T10:43:51;9.45;;;1.73;;
70369;SDS011;57790;51.356;-2.906;2022-11-11T10:46:55;9.00;;;1.38;;
70369;SDS011;57790;51.356;-2.906;2022-11-11T10:50:36;9.02;;;1.95;;
70369;SDS011;57790;51.356;-2.906;2022-11-11T10:53:46;7.73;;;1.67;;
70369;SDS011;57790;51.356;-2.906;2022-11-11T10:56:56;9.75;;;1.52;;
70369;SDS011;57790;51.356;-2.906;2022-11-11T11:00:10;9.88;;;1.30;;
70369;SDS011;57790;51.356;-2.906;2022-11-11T11:03:15;10.13;;;1.70;;
70369;SDS011;57790;51.356;-2.906;2022-11-11T11:06:24;11.18;;;1.90;;
70369;SDS011;57790;51.356;-2.906;2022-11-11T11:09:29;10.40;;;1.60;;
70369;SDS011;57790;51.356;-2.906;2022-11-11T11:12:48;8.85;;;1.40;;
70369;SDS011;57790;51.356;-2.906;2022-11-11T11:15:56;11.60;;;2.15;;
70369;SDS011;57790;51.356;-2.906;2022-11-11T11:19:12;10.60;;;1.75;;
70369;SDS011;57790;51.356;-2.906;2022-11-11T11:22:15;10.65;;;1.92;;
70369;SDS011;57790;51.356;-2.906;2022-11-11T11:25:16;12.13;;;1.60;;
70369;SDS011;57790;51.356;-2.906;2022-11-11T11:28:18;11.00;;;1.55;;
70369;SDS011;57790;51.356;-2.906;2022-11-11T11:31:23;8.23;;;1.60;;
70369;SDS011;57790;51.356;-2.906;2022-11-11T11:34:45;8.90;;;1.27;;
70369;SDS011;57790;51.356;-2.906;2022-11-11T11:37:50;9.18;;;1.50;;
70369;SDS011;57790;51.356;-2.906;2022-11-11T11:40:52;9.52;;;1.75;;
70369;SDS011;57790;51.356;-2.906;2022-11-11T11:43:55;11.10;;;1.50;;
70369;SDS011;57790;51.356;-2.906;2022-11-11T11:50:30;10.55;;;1.67;;
70369;SDS011;57790;51.356;-2.906;2022-11-11T11:53:44;9.15;;;1.30;;
70369;SDS011;57790;51.356;-2.906;2022-11-11T11:56:57;11.47;;;1.67;;
70369;SDS011;57790;51.356;-2.906;2022-11-11T12:00:04;9.50;;;1.77;;
70369;SDS011;57790;51.356;-2.906;2022-11-11T12:06:54;8.18;;;1.50;;
70369;SDS011;57790;51.356;-2.906;2022-11-11T12:13:55;8.03;;;1.80;;
70369;SDS011;57790;51.356;-2.906;2022-11-11T12:17:18;8.15;;;1.25;;
70369;SDS011;57790;51.356;-2.906;2022-11-11T12:20:29;12.13;;;1.83;;
70369;SDS011;57790;51.356;-2.906;2022-11-11T12:23:44;7.60;;;1.40;;
70369;SDS011;57790;51.356;-2.906;2022-11-11T12:27:05;9.00;;;1.58;;
70369;SDS011;57790;51.356;-2.906;2022-11-11T12:30:23;9.10;;;1.50;;
70369;SDS011;57790;51.356;-2.906;2022-11-11T12:33:36;7.45;;;1.50;;
70369;SDS011;57790;51.356;-2.906;2022-11-11T12:37:02;11.40;;;1.23;;
70369;SDS011;57790;51.356;-2.906;2022-11-11T12:40:52;9.68;;;1.60;;
70369;SDS011;57790;51.356;-2.906;2022-11-11T12:47:21;7.80;;;1.17;;
70369;SDS011;57790;51.356;-2.906;2022-11-11T12:50:37;6.70;;;1.42;;
70369;SDS011;57790;51.356;-2.906;2022-11-11T12:53:46;6.78;;;1.05;;
70369;SDS011;57790;51.356;-2.906;2022-11-11T12:57:03;7.93;;;1.17;;
70369;SDS011;57790;51.356;-2.906;2022-11-11T13:00:25;7.68;;;1.05;;
70369;SDS011;57790;51.356;-2.906;2022-11-11T13:03:31;7.57;;;1.10;;
70369;SDS011;57790;51.356;-2.906;2022-11-11T13:06:48;9.00;;;1.27;;
70369;SDS011;57790;51.356;-2.906;2022-11-11T13:13:30;9.52;;;1.58;;
70369;SDS011;57790;51.356;-2.906;2022-11-11T13:16:54;9.65;;;1.52;;
70369;SDS011;57790;51.356;-2.906;2022-11-11T13:19:57;8.13;;;1.40;;
70369;SDS011;57790;51.356;-2.906;2022-11-11T13:23:07;7.15;;;1.20;;
70369;SDS011;57790;51.356;-2.906;2022-11-11T13:26:15;7.78;;;1.73;;
70369;SDS011;57790;51.356;-2.906;2022-11-11T13:33:07;8.77;;;1.65;;
70369;SDS011;57790;51.356;-2.906;2022-11-11T13:36:13;7.27;;;1.57;;
70369;SDS011;57790;51.356;-2.906;2022-11-11T13:39:24;6.75;;;1.00;;
70369;SDS011;57790;51.356;-2.906;2022-11-11T13:42:29;6.65;;;1.13;;
70369;SDS011;57790;51.356;-2.906;2022-11-11T13:45:39;9.75;;;1.58;;
70369;SDS011;57790;51.356;-2.906;2022-11-11T13:48:45;9.98;;;1.30;;
70369;SDS011;57790;51.356;-2.906;2022-11-11T13:51:56;9.70;;;1.40;;
70369;SDS011;57790;51.356;-2.906;2022-11-11T13:55:02;9.30;;;1.48;;
70369;SDS011;57790;51.356;-2.906;2022-11-11T13:58:07;9.50;;;1.50;;
70369;SDS011;57790;51.356;-2.906;2022-11-11T14:01:22;9.32;;;1.48;;
70369;SDS011;57790;51.356;-2.906;2022-11-11T14:04:34;10.35;;;1.30;;
70369;SDS011;57790;51.356;-2.906;2022-11-11T14:11:55;6.53;;;1.30;;
70369;SDS011;57790;51.356;-2.906;2022-11-11T14:15:34;8.30;;;1.40;;
70369;SDS011;57790;51.356;-2.906;2022-11-11T14:18:53;5.95;;;1.10;;
70369;SDS011;57790;51.356;-2.906;2022-11-11T14:21:55;11.00;;;1.73;;
70369;SDS011;57790;51.356;-2.906;2022-11-11T14:28:27;8.77;;;1.20;;
70369;SDS011;57790;51.356;-2.906;2022-11-11T14:31:33;11.88;;;1.58;;
70369;SDS011;57790;51.356;-2.906;2022-11-11T14:34:57;7.67;;;1.30;;
70369;SDS011;57790;51.356;-2.906;2022-11-11T14:38:26;6.97;;;1.17;;
70369;SDS011;57790;51.356;-2.906;2022-11-11T14:41:49;11.40;;;1.85;;
70369;SDS011;57790;51.356;-2.906;2022-11-11T14:44:51;9.75;;;1.50;;
70369;SDS011;57790;51.356;-2.906;2022-11-11T14:47:52;11.13;;;2.13;;
70369;SDS011;57790;51.356;-2.906;2022-11-11T14:50:56;11.93;;;2.00;;
70369;SDS011;57790;51.356;-2.906;2022-11-11T14:54:03;9.98;;;1.80;;
70369;SDS011;57790;51.356;-2.906;2022-11-11T14:57:06;11.27;;;1.83;;
70369;SDS011;57790;51.356;-2.906;2022-11-11T15:00:18;10.83;;;1.50;;
70369;SDS011;57790;51.356;-2.906;2022-11-11T15:06:45;8.05;;;1.45;;
70369;SDS011;57790;51.356;-2.906;2022-11-11T15:10:11;12.85;;;1.67;;
70369;SDS011;57790;51.356;-2.906;2022-11-11T15:20:34;10.23;;;1.45;;
70369;SDS011;57790;51.356;-2.906;2022-11-11T15:31:03;10.75;;;1.50;;
70369;SDS011;57790;51.356;-2.906;2022-11-11T15:34:33;9.57;;;1.90;;
70369;SDS011;57790;51.356;-2.906;2022-11-11T15:37:42;10.77;;;1.48;;
70369;SDS011;57790;51.356;-2.906;2022-11-11T15:40:52;10.93;;;1.98;;
70369;SDS011;57790;51.356;-2.906;2022-11-11T15:43:57;12.23;;;1.50;;
70369;SDS011;57790;51.356;-2.906;2022-11-11T15:46:59;10.48;;;1.77;;
70369;SDS011;57790;51.356;-2.906;2022-11-11T15:50:00;10.07;;;2.00;;
70369;SDS011;57790;51.356;-2.906;2022-11-11T15:53:01;8.77;;;1.45;;
70369;SDS011;57790;51.356;-2.906;2022-11-11T15:56:03;9.95;;;1.45;;
70369;SDS011;57790;51.356;-2.906;2022-11-11T16:02:34;7.47;;;1.33;;
70369;SDS011;57790;51.356;-2.906;2022-11-11T16:05:35;10.75;;;1.60;;
70369;SDS011;57790;51.356;-2.906;2022-11-11T16:08:36;9.43;;;1.60;;
70369;SDS011;57790;51.356;-2.906;2022-11-11T16:11:41;8.23;;;1.42;;
70369;SDS011;57790;51.356;-2.906;2022-11-11T16:14:42;11.77;;;2.10;;
70369;SDS011;57790;51.356;-2.906;2022-11-11T16:17:48;9.27;;;2.10;;
70369;SDS011;57790;51.356;-2.906;2022-11-11T16:21:02;10.57;;;1.60;;
70369;SDS011;57790;51.356;-2.906;2022-11-11T16:24:11;6.20;;;1.60;;
70369;SDS011;57790;51.356;-2.906;2022-11-11T16:27:25;11.32;;;2.10;;
70369;SDS011;57790;51.356;-2.906;2022-11-11T16:30:30;10.73;;;1.57;;
70369;SDS011;57790;51.356;-2.906;2022-11-11T16:33:34;9.38;;;1.65;;
70369;SDS011;57790;51.356;-2.906;2022-11-11T16:36:35;9.18;;;1.75;;
70369;SDS011;57790;51.356;-2.906;2022-11-11T16:39:35;8.83;;;2.00;;
70369;SDS011;57790;51.356;-2.906;2022-11-11T16:42:36;10.85;;;3.55;;
70369;SDS011;57790;51.356;-2.906;2022-11-11T16:45:44;12.05;;;1.73;;
70369;SDS011;57790;51.356;-2.906;2022-11-11T16:48:48;9.37;;;1.77;;
70369;SDS011;57790;51.356;-2.906;2022-11-11T16:51:50;10.68;;;1.55;;
70369;SDS011;57790;51.356;-2.906;2022-11-11T16:54:54;10.32;;;1.52;;
70369;SDS011;57790;51.356;-2.906;2022-11-11T16:57:58;12.52;;;2.13;;
70369;SDS011;57790;51.356;-2.906;2022-11-11T17:01:02;9.25;;;1.70;;
70369;SDS011;57790;51.356;-2.906;2022-11-11T17:04:03;9.47;;;1.40;;
70369;SDS011;57790;51.356;-2.906;2022-11-11T17:07:04;11.25;;;1.85;;
70369;SDS011;57790;51.356;-2.906;2022-11-11T17:10:11;9.63;;;1.53;;
70369;SDS011;57790;51.356;-2.906;2022-11-11T17:13:20;7.85;;;1.67;;
70369;SDS011;57790;51.356;-2.906;2022-11-11T17:16:21;7.50;;;1.50;;
70369;SDS011;57790;51.356;-2.906;2022-11-11T17:19:21;12.00;;;1.50;;
70369;SDS011;57790;51.356;-2.906;2022-11-11T17:22:23;7.03;;;1.50;;
70369;SDS011;57790;51.356;-2.906;2022-11-11T17:25:23;10.30;;;1.47;;
70369;SDS011;57790;51.356;-2.906;2022-11-11T17:28:24;7.70;;;1.50;;
70369;SDS011;57790;51.356;-2.906;2022-11-11T17:31:25;7.72;;;1.67;;
70369;SDS011;57790;51.356;-2.906;2022-11-11T17:34:26;8.87;;;1.57;;
70369;SDS011;57790;51.356;-2.906;2022-11-11T17:37:27;10.57;;;2.07;;
70369;SDS011;57790;51.356;-2.906;2022-11-11T17:40:27;9.00;;;1.83;;
70369;SDS011;57790;51.356;-2.906;2022-11-11T17:43:28;9.43;;;1.97;;
70369;SDS011;57790;51.356;-2.906;2022-11-11T17:46:29;10.07;;;1.70;;
70369;SDS011;57790;51.356;-2.906;2022-11-11T17:49:32;8.80;;;1.70;;
70369;SDS011;57790;51.356;-2.906;2022-11-11T17:52:33;7.88;;;1.52;;
70369;SDS011;57790;51.356;-2.906;2022-11-11T17:55:33;11.27;;;2.23;;
70369;SDS011;57790;51.356;-2.906;2022-11-11T17:58:34;10.25;;;2.47;;
70369;SDS011;57790;51.356;-2.906;2022-11-11T18:01:35;10.27;;;2.80;;
70369;SDS011;57790;51.356;-2.906;2022-11-11T18:04:35;9.65;;;2.53;;
70369;SDS011;57790;51.356;-2.906;2022-11-11T18:07:36;12.67;;;3.00;;
70369;SDS011;57790;51.356;-2.906;2022-11-11T18:10:37;12.13;;;2.70;;
70369;SDS011;57790;51.356;-2.906;2022-11-11T18:13:37;12.70;;;2.95;;
70369;SDS011;57790;51.356;-2.906;2022-11-11T18:16:38;11.77;;;2.53;;
70369;SDS011;57790;51.356;-2.906;2022-11-11T18:19:38;11.07;;;2.53;;
70369;SDS011;57790;51.356;-2.906;2022-11-11T18:22:39;11.27;;;2.78;;
70369;SDS011;57790;51.356;-2.906;2022-11-11T18:25:39;13.77;;;2.97;;
70369;SDS011;57790;51.356;-2.906;2022-11-11T18:28:40;10.43;;;2.70;;
70369;SDS011;57790;51.356;-2.906;2022-11-11T18:31:41;8.00;;;2.07;;
70369;SDS011;57790;51.356;-2.906;2022-11-11T18:34:42;9.80;;;2.23;;
70369;SDS011;57790;51.356;-2.906;2022-11-11T18:37:42;10.10;;;2.28;;
70369;SDS011;57790;51.356;-2.906;2022-11-11T18:40:43;8.20;;;2.10;;
70369;SDS011;57790;51.356;-2.906;2022-11-11T18:43:45;11.23;;;2.50;;
70369;SDS011;57790;51.356;-2.906;2022-11-11T18:46:47;10.02;;;2.72;;
70369;SDS011;57790;51.356;-2.906;2022-11-11T18:49:48;12.23;;;3.00;;
70369;SDS011;57790;51.356;-2.906;2022-11-11T18:52:49;12.67;;;3.20;;
70369;SDS011;57790;51.356;-2.906;2022-11-11T18:55:49;11.13;;;3.20;;
70369;SDS011;57790;51.356;-2.906;2022-11-11T18:58:51;13.83;;;4.10;;
70369;SDS011;57790;51.356;-2.906;2022-11-11T19:01:53;11.23;;;3.05;;
70369;SDS011;57790;51.356;-2.906;2022-11-11T19:04:54;9.93;;;2.27;;
70369;SDS011;57790;51.356;-2.906;2022-11-11T19:07:54;11.05;;;2.38;;
70369;SDS011;57790;51.356;-2.906;2022-11-11T19:10:55;11.87;;;2.23;;
70369;SDS011;57790;51.356;-2.906;2022-11-11T19:13:56;8.95;;;2.20;;